createdAt,value
2023-05-17T00:01:47.516Z,101566.81
2023-05-17T00:04:14.082Z,101561.59
2023-05-17T00:06:41.139Z,101572.91
2023-05-17T00:09:07.762Z,101565.06
2023-05-17T00:11:34.399Z,101565.91
2023-05-17T00:14:00.934Z,101566.81
2023-05-17T00:16:27.462Z,101566.81
2023-05-17T00:18:54.279Z,101571.13
2023-05-17T00:21:20.803Z,101581.59
2023-05-17T00:23:47.354Z,101570.25
2023-05-17T00:26:13.911Z,101572.88
2023-05-17T00:28:40.403Z,101573.72
2023-05-17T00:31:06.882Z,101567.63
2023-05-17T00:33:33.420Z,101571.09
2023-05-17T00:35:59.897Z,101568.50
2023-05-17T00:38:26.482Z,101573.72
2023-05-17T00:40:54.150Z,101572.00
2023-05-17T00:43:20.840Z,101575.50
2023-05-17T00:45:49.342Z,101574.63
2023-05-17T00:48:16.234Z,101566.78
2023-05-17T00:50:43.180Z,101572.00
2023-05-17T00:53:16.022Z,101562.47
2023-05-17T00:55:46.212Z,101563.31
2023-05-17T00:58:13.629Z,101568.53
2023-05-17T01:00:40.977Z,101570.28
2023-05-17T01:03:08.112Z,101564.16
2023-05-17T01:05:34.854Z,101571.13
2023-05-17T01:08:01.365Z,101572.88
2023-05-17T01:10:44.082Z,101578.94
2023-05-17T01:13:17.434Z,101586.78
2023-05-17T01:15:51.918Z,101581.56
2023-05-17T01:18:29.992Z,101588.50
2023-05-17T01:21:00.390Z,101583.28
2023-05-17T01:23:44.882Z,101585.00
2023-05-17T01:26:16.873Z,101587.63
2023-05-17T01:28:46.262Z,101582.34
2023-05-17T01:31:13.317Z,101583.22
2023-05-17T01:33:40.424Z,101576.25
2023-05-17T01:36:07.515Z,101581.47
2023-05-17T01:38:33.958Z,101582.34
2023-05-17T01:41:18.205Z,101584.13
2023-05-17T01:44:00.080Z,101585.88
2023-05-17T01:46:31.992Z,101589.38
2023-05-17T01:49:29.520Z,101589.38
2023-05-17T01:52:08.851Z,101591.97
2023-05-17T01:54:42.084Z,101595.44
2023-05-17T01:57:09.885Z,101596.28
2023-05-17T01:59:38.538Z,101602.38
2023-05-17T02:02:09.400Z,101597.16
2023-05-17T02:04:36.676Z,101606.75
2023-05-17T02:07:03.724Z,101603.25
2023-05-17T02:09:30.972Z,101603.25
2023-05-17T02:11:57.482Z,101603.25
2023-05-17T02:14:23.999Z,101600.59
2023-05-17T02:16:50.451Z,101604.97
2023-05-17T02:19:17.022Z,101617.09
2023-05-17T02:21:43.582Z,101611.88
2023-05-17T02:24:10.066Z,101600.56
2023-05-17T02:26:36.572Z,101604.91
2023-05-17T02:29:03.098Z,101610.19
2023-05-17T02:31:29.844Z,101612.75
2023-05-17T02:33:56.490Z,101609.28
2023-05-17T02:36:23.070Z,101609.28
2023-05-17T02:38:49.529Z,101612.75
2023-05-17T02:41:16.047Z,101615.34
2023-05-17T02:43:42.600Z,101615.28
2023-05-17T02:46:09.213Z,101616.16
2023-05-17T02:48:35.850Z,101614.41
2023-05-17T02:51:02.369Z,101617.84
2023-05-17T02:53:28.847Z,101620.38
2023-05-17T02:55:58.008Z,101624.63
2023-05-17T02:58:25.766Z,101622.91
2023-05-17T03:00:52.420Z,101627.25
2023-05-17T03:03:19.052Z,101631.59
2023-05-17T03:05:45.768Z,101628.91
2023-05-17T03:08:12.229Z,101624.56
2023-05-17T03:10:38.755Z,101625.44
2023-05-17T03:13:05.268Z,101634.06
2023-05-17T03:15:31.829Z,101626.25
2023-05-17T03:17:58.556Z,101632.25
2023-05-17T03:20:25.429Z,101643.56
2023-05-17T03:22:51.932Z,101640.06
2023-05-17T03:25:18.551Z,101642.69
2023-05-17T03:27:45.031Z,101648.69
2023-05-17T03:30:11.874Z,101647.81
2023-05-17T03:32:40.475Z,101653.09
2023-05-17T03:35:08.279Z,101652.22
2023-05-17T03:37:34.860Z,101652.19
2023-05-17T03:40:01.298Z,101653.03
2023-05-17T03:42:27.830Z,101659.16
2023-05-17T03:44:54.286Z,101659.25
2023-05-17T03:47:23.885Z,101660.19
2023-05-17T03:49:50.740Z,101663.72
2023-05-17T03:52:17.301Z,101668.09
2023-05-17T03:54:43.812Z,101670.69
2023-05-17T03:57:10.431Z,101677.66
2023-05-17T03:59:36.910Z,101673.38
2023-05-17T04:02:03.486Z,101675.97
2023-05-17T04:04:30.099Z,101679.47
2023-05-17T04:06:56.688Z,101683.84
2023-05-17T04:09:23.142Z,101676.91
2023-05-17T04:11:49.822Z,101680.41
2023-05-17T04:14:18.239Z,101686.53
2023-05-17T04:16:44.781Z,101681.31
2023-05-17T04:19:11.321Z,101689.19
2023-05-17T04:21:38.019Z,101685.66
2023-05-17T04:24:04.968Z,101685.63
2023-05-17T04:26:32.220Z,101685.63
2023-05-17T04:28:58.843Z,101689.13
2023-05-17T04:31:25.484Z,101687.44
2023-05-17T04:33:52.104Z,101687.53
2023-05-17T04:36:18.750Z,101682.34
2023-05-17T04:38:45.362Z,101684.97
2023-05-17T04:41:11.907Z,101683.22
2023-05-17T04:43:38.416Z,101682.38
2023-05-17T04:46:05.950Z,101690.19
2023-05-17T04:48:33.296Z,101698.03
2023-05-17T04:51:06.756Z,101698.91
2023-05-17T04:53:33.290Z,101691.94
2023-05-17T04:55:59.928Z,101696.31
2023-05-17T04:58:26.419Z,101705.03
2023-05-17T05:00:52.931Z,101705.06
2023-05-17T05:03:19.554Z,101710.31
2023-05-17T05:05:46.148Z,101720.75
2023-05-17T05:08:12.780Z,101714.66
2023-05-17T05:10:39.297Z,101719.03
2023-05-17T05:13:06.091Z,101732.94
2023-05-17T05:15:33.060Z,101734.69
2023-05-17T05:17:59.603Z,101730.34
2023-05-17T05:20:27.966Z,101746.88
2023-05-17T05:22:54.858Z,101746.91
2023-05-17T05:25:21.378Z,101755.63
2023-05-17T05:27:48.102Z,101755.63
2023-05-17T05:30:21.898Z,101759.09
2023-05-17T05:32:50.084Z,101759.97
2023-05-17T05:35:17.378Z,101760.00
2023-05-17T05:37:44.845Z,101757.41
2023-05-17T05:40:11.893Z,101760.03
2023-05-17T05:42:38.457Z,101750.44
2023-05-17T05:45:09.569Z,101755.72
2023-05-17T05:47:36.255Z,101746.13
2023-05-17T05:50:02.938Z,101756.63
2023-05-17T05:52:29.414Z,101754.00
2023-05-17T05:54:55.853Z,101758.38
2023-05-17T05:57:22.364Z,101764.50
2023-05-17T05:59:48.879Z,101765.41
2023-05-17T06:02:16.839Z,101761.06
2023-05-17T06:04:45.728Z,101767.16
2023-05-17T06:07:13.429Z,101775.84
2023-05-17T06:09:40.407Z,101772.38
2023-05-17T06:12:07.325Z,101773.25
2023-05-17T06:14:34.068Z,101768.91
2023-05-17T06:17:00.631Z,101768.03
2023-05-17T06:19:27.257Z,101771.50
2023-05-17T06:21:53.860Z,101779.34
2023-05-17T06:24:20.528Z,101782.00
2023-05-17T06:26:49.916Z,101778.50
2023-05-17T06:29:16.442Z,101783.78
2023-05-17T06:31:42.938Z,101793.38
2023-05-17T06:34:09.492Z,101787.28
2023-05-17T06:36:37.633Z,101790.78
2023-05-17T06:39:05.438Z,101789.91
2023-05-17T06:41:31.898Z,101788.19
2023-05-17T06:43:58.371Z,101790.84
2023-05-17T06:46:24.909Z,101792.59
2023-05-17T06:48:51.674Z,101792.59
2023-05-17T06:51:18.296Z,101793.50
2023-05-17T06:53:44.881Z,101796.97
2023-05-17T06:56:11.429Z,101799.63
2023-05-17T06:58:37.930Z,101805.72
2023-05-17T07:01:04.489Z,101804.88
2023-05-17T07:03:31.142Z,101807.47
2023-05-17T07:05:57.772Z,101812.75
2023-05-17T07:08:24.239Z,101820.56
2023-05-17T07:10:54.047Z,101831.03
2023-05-17T07:13:20.715Z,101823.19
2023-05-17T07:15:47.313Z,101821.50
2023-05-17T07:18:14.159Z,101828.47
2023-05-17T07:20:40.782Z,101827.59
2023-05-17T07:23:07.706Z,101836.34
2023-05-17T07:25:34.517Z,101846.81
2023-05-17T07:28:01.066Z,101831.94
2023-05-17T07:30:27.739Z,101836.28
2023-05-17T07:32:54.399Z,101845.00
2023-05-17T07:35:21.905Z,101840.63
2023-05-17T07:37:48.824Z,101838.88
2023-05-17T07:40:15.483Z,101840.63
2023-05-17T07:42:41.995Z,101839.72
2023-05-17T07:45:09.137Z,101844.97
2023-05-17T07:47:35.838Z,101856.41
2023-05-17T07:50:04.048Z,101848.56
2023-05-17T07:52:30.602Z,101851.19
2023-05-17T07:54:57.161Z,101852.91
2023-05-17T07:57:23.698Z,101850.28
2023-05-17T07:59:50.217Z,101849.41
2023-05-17T08:02:16.764Z,101859.03
2023-05-17T08:04:43.324Z,101861.66
2023-05-17T08:07:09.954Z,101860.78
2023-05-17T08:09:36.433Z,101859.03
2023-05-17T08:12:02.983Z,101859.88
2023-05-17T08:14:29.508Z,101852.03
2023-05-17T08:16:56.159Z,101857.25
2023-05-17T08:19:22.932Z,101861.56
2023-05-17T08:21:49.625Z,101861.53
2023-05-17T08:24:17.614Z,101866.75
2023-05-17T08:26:45.171Z,101869.38
2023-05-17T08:29:11.636Z,101866.75
2023-05-17T08:31:38.107Z,101872.81
2023-05-17T08:34:04.793Z,101871.09
2023-05-17T08:36:32.721Z,101871.16
2023-05-17T08:38:59.235Z,101864.19
2023-05-17T08:41:25.807Z,101879.03
2023-05-17T08:43:54.134Z,101881.69
2023-05-17T08:46:23.974Z,101873.81
2023-05-17T08:48:52.010Z,101872.91
2023-05-17T08:51:20.770Z,101883.34
2023-05-17T08:53:48.176Z,101876.34
2023-05-17T08:56:16.634Z,101874.63
2023-05-17T08:58:56.505Z,101874.66
2023-05-17T09:01:26.512Z,101879.88
2023-05-17T09:03:54.375Z,101871.13
2023-05-17T09:06:22.809Z,101864.09
2023-05-17T09:08:58.344Z,101864.09
2023-05-17T09:11:30.757Z,101873.69
2023-05-17T09:14:05.371Z,101877.16
2023-05-17T09:16:33.718Z,101873.63
2023-05-17T09:19:01.419Z,101878.03
2023-05-17T09:21:31.013Z,101865.81
2023-05-17T09:24:07.255Z,101882.41
2023-05-17T09:26:46.210Z,101881.44
2023-05-17T09:29:16.775Z,101874.44
2023-05-17T09:31:44.302Z,101878.84
2023-05-17T09:34:11.336Z,101890.22
2023-05-17T09:36:42.127Z,101881.50
2023-05-17T09:39:13.704Z,101879.72
2023-05-17T09:41:45.303Z,101869.16
2023-05-17T09:44:13.176Z,101870.81
2023-05-17T09:46:46.193Z,101869.84
2023-05-17T09:49:13.475Z,101871.44
2023-05-17T09:51:42.719Z,101866.16
2023-05-17T09:54:10.448Z,101871.56
2023-05-17T09:56:37.217Z,101870.69
2023-05-17T09:59:10.601Z,101858.41
2023-05-17T10:01:40.538Z,101867.19
2023-05-17T10:04:10.316Z,101874.28
2023-05-17T10:09:14.713Z,101863.06
2023-05-17T10:11:46.074Z,101863.84
2023-05-17T10:14:18.661Z,101859.34
2023-05-17T10:16:45.853Z,101869.69
2023-05-17T10:19:14.109Z,101866.34
2023-05-17T10:21:42.857Z,101861.09
2023-05-17T10:24:11.320Z,101855.03
2023-05-17T10:26:38.717Z,101864.75
2023-05-17T10:29:06.018Z,101867.38
2023-05-17T10:31:33.812Z,101848.94
2023-05-17T10:34:05.619Z,101849.66
2023-05-17T10:36:33.334Z,101845.94
2023-05-17T10:39:00.529Z,101850.38
2023-05-17T10:41:32.148Z,101845.88
2023-05-17T10:44:00.933Z,101853.75
2023-05-17T10:46:29.840Z,101849.34
2023-05-17T10:48:59.125Z,101847.66
2023-05-17T10:51:34.429Z,101851.25
2023-05-17T10:54:11.903Z,101857.44
2023-05-17T10:56:47.177Z,101850.31
2023-05-17T10:59:22.053Z,101848.41
2023-05-17T11:01:58.003Z,101849.22
2023-05-17T11:04:33.568Z,101853.63
2023-05-17T11:07:27.945Z,101847.38
2023-05-17T11:10:03.638Z,101860.53
2023-05-17T11:12:33.861Z,101844.03
2023-05-17T11:15:01.373Z,101841.41
2023-05-17T11:17:35.112Z,101835.97
2023-05-17T11:20:02.500Z,101848.16
2023-05-17T11:22:37.328Z,101843.06
2023-05-17T11:25:08.531Z,101847.41
2023-05-17T11:27:43.284Z,101829.91
2023-05-17T11:30:31.665Z,101844.72
2023-05-17T11:33:01.290Z,101828.97
2023-05-17T11:35:38.958Z,101840.38
2023-05-17T11:38:19.204Z,101838.84
2023-05-17T11:40:47.458Z,101834.41
2023-05-17T11:43:17.168Z,101838.72
2023-05-17T11:45:48.213Z,101832.47
2023-05-17T11:48:16.327Z,101846.25
2023-05-17T11:50:44.792Z,101833.09
2023-05-17T11:53:12.037Z,101839.09
2023-05-17T11:55:43.952Z,101831.91
2023-05-17T11:58:12.309Z,101829.84
2023-05-17T12:00:40.643Z,101825.81
2023-05-17T12:03:24.420Z,101823.88
2023-05-17T12:06:01.166Z,101828.81
2023-05-17T12:08:28.248Z,101845.75
2023-05-17T12:10:56.589Z,101827.28
2023-05-17T12:13:23.238Z,101823.63
2023-05-17T12:16:21.898Z,101816.13
2023-05-17T12:18:50.847Z,101831.97
2023-05-17T12:21:19.133Z,101822.81
2023-05-17T12:23:49.523Z,101819.72
2023-05-17T12:26:19.920Z,101824.84
2023-05-17T12:28:54.078Z,101822.78
2023-05-17T12:31:24.914Z,101833.19
2023-05-17T12:33:51.606Z,101815.69
2023-05-17T12:36:18.758Z,101819.69
2023-05-17T12:38:47.264Z,101813.19
2023-05-17T12:41:15.525Z,101803.69
2023-05-17T12:43:45.042Z,101806.09
2023-05-17T12:46:20.334Z,101816.97
2023-05-17T12:48:48.086Z,101817.38
2023-05-17T12:51:16.354Z,101818.19
2023-05-17T12:53:53.097Z,101812.75
2023-05-17T12:56:24.457Z,101825.47
2023-05-17T12:59:04.765Z,101824.13
2023-05-17T13:01:44.265Z,101832.09
2023-05-17T13:04:11.847Z,101822.84
2023-05-17T13:06:54.529Z,101816.09
2023-05-17T13:09:24.087Z,101823.16
2023-05-17T13:11:57.894Z,101825.66
2023-05-17T13:14:37.816Z,101824.53
2023-05-17T13:17:05.739Z,101833.19
2023-05-17T13:19:33.214Z,101817.97
2023-05-17T13:21:59.997Z,101809.72
2023-05-17T13:24:27.886Z,101819.88
2023-05-17T13:26:54.646Z,101818.44
2023-05-17T13:29:35.288Z,101801.13
2023-05-17T13:32:06.651Z,101817.78
2023-05-17T13:34:33.148Z,101810.63
2023-05-17T13:36:59.677Z,101802.88
2023-05-17T13:39:26.167Z,101803.13
2023-05-17T13:41:52.893Z,101809.56
2023-05-17T13:44:19.468Z,101799.25
2023-05-17T13:46:45.956Z,101801.84
2023-05-17T13:49:12.936Z,101802.84
2023-05-17T13:51:39.775Z,101801.22
2023-05-17T13:54:07.369Z,101789.22
2023-05-17T13:56:34.609Z,101800.06
2023-05-17T13:59:01.237Z,101794.13
2023-05-17T14:01:27.887Z,101783.06
2023-05-17T14:03:55.304Z,101792.97
2023-05-17T14:06:21.964Z,101796.16
2023-05-17T14:08:48.650Z,101790.94
2023-05-17T14:11:15.230Z,101790.75
2023-05-17T14:13:42.797Z,101779.31
2023-05-17T14:16:09.434Z,101793.38
2023-05-17T14:18:36.241Z,101787.16
2023-05-17T14:21:03.570Z,101780.72
2023-05-17T14:23:30.206Z,101789.34
2023-05-17T14:25:57.761Z,101787.56
2023-05-17T14:28:24.581Z,101775.19
2023-05-17T14:30:51.848Z,101785.28
2023-05-17T14:33:18.619Z,101789.25
2023-05-17T14:35:45.243Z,101772.41
2023-05-17T14:38:11.802Z,101763.19
2023-05-17T14:40:38.324Z,101770.06
2023-05-17T14:43:05.053Z,101766.75
2023-05-17T14:45:31.835Z,101770.28
2023-05-17T14:47:58.397Z,101776.22
2023-05-17T14:50:25.009Z,101774.44
2023-05-17T14:52:51.564Z,101773.56
2023-05-17T14:55:18.780Z,101768.97
2023-05-17T14:57:45.848Z,101761.00
2023-05-17T15:00:13.548Z,101765.16
2023-05-17T15:02:40.174Z,101780.56
2023-05-17T15:05:07.293Z,101770.59
2023-05-17T15:07:34.378Z,101773.50
2023-05-17T15:10:01.389Z,101781.06
2023-05-17T15:12:28.368Z,101790.88
2023-05-17T15:14:54.882Z,101779.94
2023-05-17T15:17:22.135Z,101766.41
2023-05-17T15:19:48.991Z,101783.03
2023-05-17T15:22:15.930Z,101776.78
2023-05-17T15:24:42.800Z,101784.22
2023-05-17T15:27:12.634Z,101772.91
2023-05-17T15:29:40.816Z,101776.13
2023-05-17T15:32:07.495Z,101781.75
2023-05-17T15:34:34.264Z,101780.06
2023-05-17T15:37:02.086Z,101773.75
2023-05-17T15:39:28.648Z,101770.69
2023-05-17T15:41:55.127Z,101776.78
2023-05-17T15:44:23.912Z,101773.50
2023-05-17T15:46:50.855Z,101760.56
2023-05-17T15:49:17.420Z,101771.88
2023-05-17T15:51:44.009Z,101769.25
2023-05-17T15:54:10.689Z,101767.19
2023-05-17T15:56:38.325Z,101770.31
2023-05-17T15:59:05.855Z,101765.00
2023-05-17T16:01:32.624Z,101762.72
2023-05-17T16:03:59.170Z,101773.53
2023-05-17T16:06:25.876Z,101761.91
2023-05-17T16:08:53.383Z,101772.03
2023-05-17T16:11:21.450Z,101761.44
2023-05-17T16:13:47.950Z,101771.47
2023-05-17T16:16:14.742Z,101761.44
2023-05-17T16:18:41.413Z,101772.78
2023-05-17T16:21:08.003Z,101770.00
2023-05-17T16:23:34.614Z,101773.16
2023-05-17T16:26:01.454Z,101769.06
2023-05-17T16:28:28.059Z,101761.69
2023-05-17T16:30:54.702Z,101774.81
2023-05-17T16:33:21.470Z,101769.25
2023-05-17T16:35:49.340Z,101775.25
2023-05-17T16:38:16.559Z,101774.81
2023-05-17T16:40:43.218Z,101780.97
2023-05-17T16:43:10.018Z,101772.28
2023-05-17T16:45:36.573Z,101774.28
2023-05-17T16:48:03.226Z,101774.44
2023-05-17T16:50:29.904Z,101776.78
2023-05-17T16:52:56.825Z,101781.88
2023-05-17T16:55:23.460Z,101774.66
2023-05-17T16:57:50.013Z,101772.09
2023-05-17T17:00:17.510Z,101785.09
2023-05-17T17:02:44.046Z,101777.47
2023-05-17T17:05:10.685Z,101792.38
2023-05-17T17:07:37.228Z,101790.16
2023-05-17T17:10:03.989Z,101790.53
2023-05-17T17:12:30.988Z,101783.44
2023-05-17T17:14:57.453Z,101785.31
2023-05-17T17:17:23.996Z,101785.94
2023-05-17T17:19:50.496Z,101786.13
2023-05-17T17:22:16.994Z,101791.59
2023-05-17T17:24:44.458Z,101787.69
2023-05-17T17:27:11.606Z,101792.09
2023-05-17T17:29:38.112Z,101790.19
2023-05-17T17:32:05.164Z,101794.41
2023-05-17T17:34:31.919Z,101792.03
2023-05-17T17:36:58.414Z,101793.25
2023-05-17T17:39:25.131Z,101790.09
2023-05-17T17:41:51.736Z,101790.75
2023-05-17T17:44:19.585Z,101783.06
2023-05-17T17:46:46.137Z,101801.81
2023-05-17T17:49:12.645Z,101799.34
2023-05-17T17:51:39.093Z,101796.84
2023-05-17T17:54:07.314Z,101792.41
2023-05-17T17:56:34.028Z,101803.75
2023-05-17T17:59:00.580Z,101793.53
2023-05-17T18:01:27.692Z,101807.91
2023-05-17T18:03:54.236Z,101800.19
2023-05-17T18:06:20.901Z,101801.25
2023-05-17T18:08:47.391Z,101812.09
2023-05-17T18:11:13.920Z,101809.97
2023-05-17T18:13:40.497Z,101811.84
2023-05-17T18:16:07.055Z,101813.78
2023-05-17T18:18:33.871Z,101806.06
2023-05-17T18:21:00.428Z,101814.16
2023-05-17T18:23:26.926Z,101815.22
2023-05-17T18:25:53.511Z,101806.41
2023-05-17T18:28:29.691Z,101809.13
2023-05-17T18:31:04.585Z,101810.31
2023-05-17T18:33:31.517Z,101814.78
2023-05-17T18:35:58.081Z,101814.78
2023-05-17T18:38:24.557Z,101815.16
2023-05-17T18:40:51.204Z,101817.81
2023-05-17T18:43:17.921Z,101820.44
2023-05-17T18:45:44.449Z,101818.59
2023-05-17T18:48:10.975Z,101817.84
2023-05-17T18:50:37.507Z,101825.94
2023-05-17T18:53:03.981Z,101825.13
2023-05-17T18:55:30.530Z,101818.28
2023-05-17T18:57:57.097Z,101819.31
2023-05-17T19:00:23.597Z,101829.09
2023-05-17T19:02:50.076Z,101819.47
2023-05-17T19:05:16.696Z,101825.66
2023-05-17T19:07:43.327Z,101831.88
2023-05-17T19:10:10.468Z,101833.78
2023-05-17T19:12:37.036Z,101838.31
2023-05-17T19:15:04.162Z,101841.00
2023-05-17T19:17:31.054Z,101835.00
2023-05-17T19:19:57.585Z,101837.69
2023-05-17T19:22:24.110Z,101837.84
2023-05-17T19:24:50.773Z,101843.25
2023-05-17T19:27:19.631Z,101842.50
2023-05-17T19:29:47.117Z,101839.09
2023-05-17T19:32:13.758Z,101841.75
2023-05-17T19:34:40.429Z,101840.09
2023-05-17T19:37:07.216Z,101842.00
2023-05-17T19:39:36.251Z,101854.38
2023-05-17T19:42:04.262Z,101855.25
2023-05-17T19:44:31.220Z,101859.78
2023-05-17T19:46:57.817Z,101864.22
2023-05-17T19:49:24.531Z,101862.41
2023-05-17T19:51:53.998Z,101864.25
2023-05-17T19:54:21.824Z,101859.78
2023-05-17T19:56:48.333Z,101862.44
2023-05-17T19:59:14.891Z,101861.63
2023-05-17T20:01:41.837Z,101867.88
2023-05-17T20:04:10.352Z,101869.69
2023-05-17T20:06:37.383Z,101875.88
2023-05-17T20:09:04.519Z,101876.81
2023-05-17T20:11:31.479Z,101874.25
2023-05-17T20:13:57.995Z,101875.22
2023-05-17T20:16:27.829Z,101869.22
2023-05-17T20:18:55.011Z,101869.31
2023-05-17T20:21:22.971Z,101872.88
2023-05-17T20:23:51.324Z,101863.25
2023-05-17T20:26:19.032Z,101867.78
2023-05-17T20:28:46.144Z,101862.50
2023-05-17T20:31:12.762Z,101868.69
2023-05-17T20:33:39.356Z,101869.53
2023-05-17T20:36:06.109Z,101872.16
2023-05-17T20:38:32.630Z,101877.56
2023-05-17T20:41:00.679Z,101870.56
2023-05-17T20:43:28.934Z,101877.59
2023-05-17T20:45:55.832Z,101875.94
2023-05-17T20:48:22.414Z,101873.34
2023-05-17T20:50:49.327Z,101876.88
2023-05-17T20:53:16.111Z,101885.59
2023-05-17T20:55:44.238Z,101883.81
2023-05-17T20:58:11.429Z,101880.34
2023-05-17T21:00:38.295Z,101878.59
2023-05-17T21:03:05.004Z,101875.97
2023-05-17T21:05:36.033Z,101876.03
2023-05-17T21:08:03.098Z,101875.16
2023-05-17T21:10:30.079Z,101875.16
2023-05-17T21:12:57.055Z,101881.31
2023-05-17T21:15:24.192Z,101885.69
2023-05-17T21:17:51.249Z,101882.16
2023-05-17T21:20:17.820Z,101883.03
2023-05-17T21:22:45.445Z,101883.06
2023-05-17T21:25:11.962Z,101890.16
2023-05-17T21:27:38.604Z,101883.16
2023-05-17T21:30:05.924Z,101886.63
2023-05-17T21:32:32.495Z,101880.56
2023-05-17T21:34:59.710Z,101891.94
2023-05-17T21:37:26.442Z,101879.72
2023-05-17T21:39:52.976Z,101885.00
2023-05-17T21:42:19.558Z,101889.38
2023-05-17T21:44:46.023Z,101891.16
2023-05-17T21:47:12.458Z,101891.16
2023-05-17T21:49:38.917Z,101883.28
2023-05-17T21:52:05.890Z,101894.66
2023-05-17T21:54:32.409Z,101885.94
2023-05-17T21:56:58.945Z,101882.41
2023-05-17T21:59:25.427Z,101882.47
2023-05-17T22:01:55.016Z,101886.81
2023-05-17T22:04:21.690Z,101892.09
2023-05-17T22:06:48.225Z,101892.13
2023-05-17T22:09:14.821Z,101892.16
2023-05-17T22:11:41.323Z,101891.25
2023-05-17T22:14:08.041Z,101889.53
2023-05-17T22:16:36.152Z,101882.53
2023-05-17T22:19:03.863Z,101900.06
2023-05-17T22:21:31.587Z,101900.03
2023-05-17T22:23:59.158Z,101886.06
2023-05-17T22:26:25.765Z,101890.44
2023-05-17T22:28:52.369Z,101900.06
2023-05-17T22:31:19.692Z,101897.44
2023-05-17T22:33:46.508Z,101898.31
2023-05-17T22:36:14.097Z,101894.81
2023-05-17T22:38:42.648Z,101886.09
2023-05-17T22:41:10.079Z,101890.47
2023-05-17T22:43:37.115Z,101895.69
2023-05-17T22:46:03.992Z,101891.31
2023-05-17T22:48:31.964Z,101900.06
2023-05-17T22:51:01.569Z,101905.28
2023-05-17T22:53:31.579Z,101897.41
2023-05-17T22:55:58.116Z,101901.78
2023-05-17T22:58:24.646Z,101899.16
2023-05-17T23:00:52.085Z,101906.97
2023-05-17T23:03:19.527Z,101900.88
2023-05-17T23:05:46.078Z,101908.69
2023-05-17T23:08:15.325Z,101903.41
2023-05-17T23:10:45.315Z,101906.03
2023-05-17T23:13:12.506Z,101908.63
2023-05-17T23:15:40.724Z,101908.63
2023-05-17T23:18:07.422Z,101909.53
2023-05-17T23:20:35.009Z,101902.56
2023-05-17T23:23:01.819Z,101913.03
2023-05-17T23:25:29.289Z,101906.13
2023-05-17T23:27:58.095Z,101910.44
2023-05-17T23:30:25.105Z,101902.59
2023-05-17T23:35:18.814Z,101900.88
2023-05-17T23:37:45.379Z,101898.22
2023-05-17T23:40:12.546Z,101899.09
2023-05-17T23:42:40.425Z,101909.56
2023-05-17T23:45:09.849Z,101899.09
2023-05-17T23:47:40.447Z,101893.84
2023-05-17T23:50:09.269Z,101889.41
2023-05-17T23:52:38.847Z,101903.38
2023-05-17T23:55:09.072Z,101899.03
2023-05-17T23:57:35.608Z,101903.38
